createdAt,value
2023-05-26T00:00:01.817Z,102797.81
2023-05-26T00:05:08.096Z,102802.59
2023-05-26T00:10:12.615Z,102808.69
2023-05-26T00:15:16.379Z,102803.53
2023-05-26T00:20:23.664Z,102810.28
2023-05-26T00:25:27.534Z,102816.63
2023-05-26T00:30:31.248Z,102822.72
2023-05-26T00:35:36.336Z,102818.34
2023-05-26T00:40:40.105Z,102820.72
2023-05-26T00:45:43.907Z,102823.84
2023-05-26T00:50:49.612Z,102822.63
2023-05-26T00:55:55.906Z,102817.91
2023-05-26T01:00:59.995Z,102821.81
2023-05-26T01:06:05.385Z,102822.75
2023-05-26T01:11:17.193Z,102829.50
2023-05-26T01:16:24.963Z,102830.63
2023-05-26T01:21:35.145Z,102826.78
2023-05-26T01:26:57.127Z,102828.09
2023-05-26T01:32:09.228Z,102837.13
2023-05-26T01:37:13.080Z,102839.22
2023-05-26T01:42:31.119Z,102839.00
2023-05-26T01:47:41.729Z,102841.38
2023-05-26T01:52:46.708Z,102837.63
2023-05-26T01:57:52.877Z,102836.37
2023-05-26T02:02:58.284Z,102844.47
2023-05-26T02:08:02.208Z,102834.31
2023-05-26T02:13:05.989Z,102832.66
2023-05-26T02:18:12.200Z,102848.44
2023-05-26T02:23:16.578Z,102835.25
2023-05-26T02:28:21.437Z,102851.09
2023-05-26T02:33:27.078Z,102861.84
2023-05-26T02:38:30.783Z,102860.44
2023-05-26T02:43:34.537Z,102855.41
2023-05-26T02:48:40.188Z,102858.22
2023-05-26T02:53:43.909Z,102847.50
2023-05-26T02:58:47.652Z,102858.38
2023-05-26T03:03:52.838Z,102856.44
2023-05-26T03:08:56.939Z,102855.03
2023-05-26T03:14:01.240Z,102854.06
2023-05-26T03:19:06.566Z,102854.75
2023-05-26T03:24:10.893Z,102860.97
2023-05-26T03:29:14.987Z,102868.47
2023-05-26T03:34:20.217Z,102872.12
2023-05-26T03:39:24.111Z,102871.88
2023-05-26T03:44:28.470Z,102880.00
2023-05-26T03:49:33.684Z,102884.94
2023-05-26T03:54:37.507Z,102887.50
2023-05-26T03:59:41.343Z,102888.81
2023-05-26T04:04:46.527Z,102892.19
2023-05-26T04:09:50.356Z,102886.66
2023-05-26T04:14:54.101Z,102892.84
2023-05-26T04:20:00.669Z,102891.03
2023-05-26T04:25:08.173Z,102896.19
2023-05-26T04:30:14.379Z,102910.00
2023-05-26T04:35:20.667Z,102905.47
2023-05-26T04:40:26.308Z,102907.03
2023-05-26T04:45:30.029Z,102906.41
2023-05-26T04:50:35.271Z,102902.53
2023-05-26T04:55:38.972Z,102914.63
2023-05-26T05:00:43.751Z,102917.75
2023-05-26T05:05:54.484Z,102915.25
2023-05-26T05:10:59.158Z,102924.03
2023-05-26T05:16:04.659Z,102923.25
2023-05-26T05:21:09.978Z,102923.91
2023-05-26T05:26:14.644Z,102932.38
2023-05-26T05:31:18.969Z,102925.81
2023-05-26T05:36:25.592Z,102927.69
2023-05-26T05:41:30.124Z,102939.44
2023-05-26T05:46:34.489Z,102941.59
2023-05-26T05:51:40.726Z,102945.44
2023-05-26T05:56:44.578Z,102955.25
2023-05-26T06:01:48.688Z,102954.75
2023-05-26T06:06:53.979Z,102954.31
2023-05-26T06:11:57.709Z,102957.41
2023-05-26T06:17:01.588Z,102962.37
2023-05-26T06:22:07.964Z,102969.31
2023-05-26T06:27:13.017Z,102967.50
2023-05-26T06:32:19.488Z,102981.25
2023-05-26T06:37:25.686Z,102962.31
2023-05-26T06:42:29.491Z,102962.47
2023-05-26T06:47:34.602Z,102972.63
2023-05-26T06:52:44.782Z,102964.66
2023-05-26T06:57:48.688Z,102965.59
2023-05-26T07:02:52.599Z,102970.13
2023-05-26T07:07:58.822Z,102971.03
2023-05-26T07:13:02.742Z,102970.66
2023-05-26T07:18:10.429Z,102972.19
2023-05-26T07:23:16.025Z,102971.75
2023-05-26T07:28:19.874Z,102971.06
2023-05-26T07:33:25.166Z,102972.72
2023-05-26T07:38:30.509Z,102976.13
2023-05-26T07:43:34.503Z,102969.59
2023-05-26T07:48:38.350Z,102976.63
2023-05-26T07:53:43.553Z,102975.87
2023-05-26T07:58:47.267Z,102966.63
2023-05-26T08:03:51.102Z,102964.28
2023-05-26T08:08:56.796Z,102969.41
2023-05-26T08:14:00.864Z,102977.41
2023-05-26T08:19:04.647Z,102975.50
2023-05-26T08:24:09.796Z,102977.09
2023-05-26T08:29:13.562Z,102961.78
2023-05-26T08:34:17.343Z,102956.44
2023-05-26T08:39:22.420Z,102955.19
2023-05-26T08:44:26.673Z,102953.81
2023-05-26T08:49:37.474Z,102958.03
2023-05-26T08:54:42.848Z,102954.25
2023-05-26T08:59:48.489Z,102961.25
2023-05-26T09:04:53.096Z,102959.25
2023-05-26T09:10:04.111Z,102959.19
2023-05-26T09:15:08.671Z,102955.50
2023-05-26T09:20:13.374Z,102952.00
2023-05-26T09:25:19.535Z,102951.28
2023-05-26T09:30:23.323Z,102948.59
2023-05-26T09:35:27.059Z,102962.94
2023-05-26T09:40:32.203Z,102956.56
2023-05-26T09:45:37.098Z,102971.41
2023-05-26T09:50:41.261Z,102962.22
2023-05-26T09:55:47.252Z,102969.97
2023-05-26T10:00:53.485Z,102946.72
2023-05-26T10:05:57.912Z,102942.78
2023-05-26T10:11:03.606Z,102942.00
2023-05-26T10:16:07.945Z,102943.53
2023-05-26T10:21:14.861Z,102948.37
2023-05-26T10:26:28.693Z,102932.34
2023-05-26T10:31:33.972Z,102929.84
2023-05-26T10:36:38.655Z,102927.06
2023-05-26T10:41:50.892Z,102923.78
2023-05-26T10:47:05.342Z,102931.91
2023-05-26T10:52:13.030Z,102926.25
2023-05-26T10:57:31.967Z,102928.75
2023-05-26T11:02:39.051Z,102926.19
2023-05-26T11:07:43.553Z,102920.09
2023-05-26T11:12:55.932Z,102917.78
2023-05-26T11:18:03.640Z,102909.75
2023-05-26T11:23:07.379Z,102908.28
2023-05-26T11:28:12.412Z,102899.16
2023-05-26T11:33:16.489Z,102895.94
2023-05-26T11:38:21.348Z,102896.06
2023-05-26T11:43:26.502Z,102901.34
2023-05-26T11:48:35.732Z,102887.87
2023-05-26T11:53:41.319Z,102892.41
2023-05-26T11:58:47.965Z,102887.47
2023-05-26T12:03:52.858Z,102880.09
2023-05-26T12:08:58.400Z,102890.22
2023-05-26T12:14:04.727Z,102887.19
2023-05-26T12:19:11.716Z,102883.41
2023-05-26T12:24:16.275Z,102891.13
2023-05-26T12:29:21.774Z,102874.63
2023-05-26T12:34:28.267Z,102867.91
2023-05-26T12:39:32.828Z,102862.94
2023-05-26T12:44:38.964Z,102866.81
2023-05-26T12:49:42.682Z,102860.87
2023-05-26T12:54:46.610Z,102858.59
2023-05-26T12:59:51.780Z,102856.78
2023-05-26T13:04:55.671Z,102863.31
2023-05-26T13:09:59.424Z,102845.41
2023-05-26T13:15:05.420Z,102840.00
2023-05-26T13:20:10.152Z,102851.72
2023-05-26T13:25:14.147Z,102838.34
2023-05-26T13:30:19.325Z,102834.88
2023-05-26T13:35:23.989Z,102832.09
2023-05-26T13:40:28.027Z,102827.81
2023-05-26T13:45:33.704Z,102814.06
2023-05-26T13:50:37.487Z,102826.37
2023-05-26T13:55:42.995Z,102818.78
2023-05-26T14:00:48.183Z,102805.56
2023-05-26T14:05:51.944Z,102809.25
2023-05-26T14:10:55.936Z,102819.03
2023-05-26T14:16:01.301Z,102790.59
2023-05-26T14:21:39.231Z,102794.94
2023-05-26T14:26:29.649Z,102791.41
2023-05-26T14:31:34.975Z,102786.00
2023-05-26T14:36:38.918Z,102779.59
2023-05-26T14:41:42.776Z,102787.53
2023-05-26T14:46:47.997Z,102791.81
2023-05-26T14:51:51.819Z,102782.25
2023-05-26T14:56:55.537Z,102776.84
2023-05-26T15:02:00.699Z,102777.84
2023-05-26T15:07:04.539Z,102771.63
2023-05-26T15:12:10.192Z,102778.53
2023-05-26T15:17:15.695Z,102770.38
2023-05-26T15:22:19.479Z,102778.69
2023-05-26T15:27:23.342Z,102772.63
2023-05-26T15:32:28.608Z,102770.44
2023-05-26T15:37:39.322Z,102771.63
2023-05-26T15:42:43.502Z,102760.72
2023-05-26T15:47:48.936Z,102758.94
2023-05-26T15:52:53.003Z,102768.72
2023-05-26T16:03:23.949Z,102766.97
2023-05-26T16:08:27.753Z,102756.28
2023-05-26T16:13:31.643Z,102752.63
2023-05-26T16:18:37.043Z,102752.59
2023-05-26T16:23:40.880Z,102743.69
2023-05-26T16:28:44.684Z,102742.72
2023-05-26T16:33:49.825Z,102747.97
2023-05-26T16:38:53.650Z,102727.75
2023-05-26T16:43:57.568Z,102741.94
2023-05-26T16:49:03.721Z,102738.28
2023-05-26T16:54:07.824Z,102747.19
2023-05-26T16:59:11.634Z,102737.97
2023-05-26T17:04:16.820Z,102742.47
2023-05-26T17:09:20.594Z,102746.28
2023-05-26T17:14:25.672Z,102752.91
2023-05-26T17:19:30.905Z,102750.62
2023-05-26T17:24:34.719Z,102749.13
2023-05-26T17:29:38.508Z,102752.59
2023-05-26T17:34:43.648Z,102745.84
2023-05-26T17:39:47.782Z,102740.03
2023-05-26T17:44:51.527Z,102757.41
2023-05-26T17:49:58.135Z,102755.63
2023-05-26T17:55:01.907Z,102755.25
2023-05-26T18:00:06.479Z,102755.59
2023-05-26T18:05:17.406Z,102763.69
2023-05-26T18:10:21.171Z,102767.00
2023-05-26T18:15:24.936Z,102781.12
2023-05-26T18:20:30.780Z,102770.56
2023-05-26T18:25:36.083Z,102775.47
2023-05-26T18:30:39.913Z,102771.69
2023-05-26T18:35:45.029Z,102781.94
2023-05-26T18:40:48.796Z,102779.13
2023-05-26T18:45:52.563Z,102780.81
2023-05-26T18:50:59.070Z,102782.28
2023-05-26T18:56:02.876Z,102779.56
2023-05-26T19:01:06.767Z,102782.50
2023-05-26T19:06:12.440Z,102795.66
2023-05-26T19:11:16.546Z,102791.38
2023-05-26T19:16:20.418Z,102792.78
2023-05-26T19:21:25.586Z,102791.72
2023-05-26T19:26:29.658Z,102797.06
2023-05-26T19:31:34.482Z,102805.72
2023-05-26T19:36:39.727Z,102805.22
2023-05-26T19:41:47.870Z,102810.81
2023-05-26T19:46:55.697Z,102821.19
2023-05-26T19:52:00.844Z,102817.47
2023-05-26T19:57:04.902Z,102823.91
2023-05-26T20:02:08.940Z,102823.00
2023-05-26T20:07:14.126Z,102828.81
2023-05-26T20:12:17.877Z,102833.41
2023-05-26T20:17:21.712Z,102830.13
2023-05-26T20:22:27.341Z,102841.41
2023-05-26T20:27:31.098Z,102837.16
2023-05-26T20:32:34.903Z,102837.91
2023-05-26T20:37:40.185Z,102837.59
2023-05-26T20:42:43.946Z,102832.06
2023-05-26T20:47:47.876Z,102844.28
2023-05-26T20:52:53.072Z,102843.63
2023-05-26T20:57:58.246Z,102852.34
2023-05-26T21:03:02.146Z,102842.16
2023-05-26T21:08:07.538Z,102847.47
2023-05-26T21:13:11.390Z,102839.13
2023-05-26T21:18:15.233Z,102850.25
2023-05-26T21:23:20.736Z,102839.09
2023-05-26T21:28:24.471Z,102843.28
2023-05-26T21:33:28.188Z,102843.84
2023-05-26T21:38:33.364Z,102837.00
2023-05-26T21:43:38.782Z,102830.22
2023-05-26T21:48:42.544Z,102844.53
2023-05-26T21:53:47.640Z,102844.34
2023-05-26T21:58:51.424Z,102846.44
2023-05-26T22:03:55.251Z,102846.94
2023-05-26T22:09:00.606Z,102841.69
2023-05-26T22:14:13.204Z,102850.34
2023-05-26T22:19:26.774Z,102841.06
2023-05-26T22:24:31.921Z,102846.06
2023-05-26T22:29:35.699Z,102842.12
2023-05-26T22:34:39.412Z,102835.34
2023-05-26T22:39:44.523Z,102835.69
2023-05-26T22:44:48.257Z,102836.53
2023-05-26T22:49:52.029Z,102834.53
2023-05-26T22:54:57.157Z,102842.19
2023-05-26T23:00:00.888Z,102835.19
2023-05-26T23:05:04.953Z,102830.28
2023-05-26T23:10:11.160Z,102828.81
2023-05-26T23:15:15.319Z,102835.34
2023-05-26T23:20:19.262Z,102833.59
2023-05-26T23:25:24.450Z,102840.00
2023-05-26T23:30:28.574Z,102838.81
2023-05-26T23:35:32.365Z,102836.19
2023-05-26T23:40:38.493Z,102830.13
2023-05-26T23:45:42.205Z,102824.81
2023-05-26T23:50:46.345Z,102831.66
2023-05-26T23:55:51.707Z,102821.47
